createdAt,value
2022-12-25T00:01:33.696Z,75.36
2022-12-25T00:04:03.963Z,75.14
2022-12-25T00:06:37.147Z,75.04
2022-12-25T00:09:08.038Z,75.39
2022-12-25T00:11:38.293Z,75.35
2022-12-25T00:14:08.615Z,74.89
2022-12-25T00:16:38.801Z,74.66
2022-12-25T00:19:09.087Z,75.33
2022-12-25T00:21:41.884Z,75.03
2022-12-25T00:24:12.788Z,75.29
2022-12-25T00:26:43.022Z,75.39
2022-12-25T00:29:15.686Z,75.44
2022-12-25T00:31:45.921Z,75.62
2022-12-25T00:34:16.195Z,75.96
2022-12-25T00:36:49.007Z,76.07
2022-12-25T00:39:22.227Z,76.06
2022-12-25T00:42:04.907Z,76.12
2022-12-25T00:44:35.157Z,76.18
2022-12-25T00:47:06.866Z,76.19
2022-12-25T00:49:37.218Z,76.02
2022-12-25T00:52:10.700Z,76.49
2022-12-25T00:54:41.090Z,76.42
2022-12-25T00:57:11.316Z,76.82
2022-12-25T00:59:41.702Z,77.47
2022-12-25T01:02:26.978Z,78.10
2022-12-25T01:04:59.281Z,77.89
2022-12-25T01:07:32.062Z,77.22
2022-12-25T01:10:14.661Z,76.84
2022-12-25T01:12:46.525Z,77.05
2022-12-25T01:15:17.183Z,77.34
2022-12-25T01:17:47.742Z,76.79
2022-12-25T01:20:19.863Z,77.03
2022-12-25T01:22:52.591Z,76.92
2022-12-25T01:25:23.212Z,77.55
2022-12-25T01:27:53.454Z,77.14
2022-12-25T01:30:23.766Z,77.35
2022-12-25T01:32:53.920Z,77.26
2022-12-25T01:35:24.166Z,77.27
2022-12-25T01:37:56.993Z,77.38
2022-12-25T01:40:27.159Z,77.54
2022-12-25T01:42:59.993Z,77.43
2022-12-25T01:45:40.680Z,77.44
2022-12-25T01:48:16.081Z,77.42
2022-12-25T01:50:56.607Z,77.71
2022-12-25T01:53:30.127Z,76.94
2022-12-25T01:56:04.529Z,77.21
2022-12-25T01:58:35.265Z,77.07
2022-12-25T02:01:05.591Z,77.36
2022-12-25T02:03:37.041Z,77.39
2022-12-25T02:06:08.067Z,77.67
2022-12-25T02:08:41.567Z,77.38
2022-12-25T02:11:32.661Z,77.54
2022-12-25T02:14:02.981Z,77.72
2022-12-25T02:16:57.625Z,77.64
2022-12-25T02:19:41.292Z,77.59
2022-12-25T02:22:19.872Z,77.71
2022-12-25T02:25:08.415Z,77.77
2022-12-25T02:28:05.118Z,77.45
2022-12-25T02:30:41.594Z,77.50
2022-12-25T02:33:29.561Z,77.82
2022-12-25T02:36:01.879Z,78.09
2022-12-25T02:38:37.987Z,77.98
2022-12-25T02:41:10.484Z,78.14
2022-12-25T02:44:04.666Z,77.77
2022-12-25T02:46:48.250Z,77.74
2022-12-25T02:49:46.790Z,77.70
2022-12-25T02:52:33.224Z,77.77
2022-12-25T02:55:20.687Z,77.92
2022-12-25T02:58:07.339Z,77.68
2022-12-25T03:04:05.303Z,77.65
2022-12-25T03:06:48.650Z,77.87
2022-12-25T03:09:41.067Z,78.03
2022-12-25T03:12:18.553Z,77.81
2022-12-25T03:15:02.602Z,77.79
2022-12-25T03:17:33.752Z,77.61
2022-12-25T03:20:21.001Z,77.75
2022-12-25T03:23:03.863Z,77.86
2022-12-25T03:25:46.581Z,78.48
2022-12-25T03:28:17.116Z,78.52
2022-12-25T03:31:07.652Z,79.46
2022-12-25T03:34:11.320Z,79.40
2022-12-25T03:36:59.996Z,78.99
2022-12-25T03:39:51.205Z,79.40
2022-12-25T03:42:51.943Z,79.12
2022-12-25T03:45:40.906Z,78.92
2022-12-25T03:48:24.759Z,78.65
2022-12-25T03:51:12.175Z,78.41
2022-12-25T03:54:02.552Z,78.74
2022-12-25T03:56:47.453Z,78.24
2022-12-25T03:59:34.432Z,77.63
2022-12-25T04:02:17.039Z,76.50
2022-12-25T04:04:59.567Z,76.49
2022-12-25T04:07:42.022Z,76.60
2022-12-25T04:10:27.368Z,76.22
2022-12-25T04:13:10.160Z,76.52
2022-12-25T04:15:52.857Z,77.17
2022-12-25T04:18:35.541Z,76.79
2022-12-25T04:21:18.095Z,76.77
2022-12-25T04:24:00.750Z,77.24
2022-12-25T04:26:45.919Z,77.02
2022-12-25T04:29:28.561Z,77.05
2022-12-25T04:32:11.090Z,77.17
2022-12-25T04:34:53.629Z,77.31
2022-12-25T04:37:24.074Z,77.28
2022-12-25T04:39:54.380Z,77.07
2022-12-25T04:42:27.210Z,77.12
2022-12-25T04:44:57.300Z,77.54
2022-12-25T04:47:27.463Z,77.17
2022-12-25T04:49:57.663Z,77.61
2022-12-25T04:52:27.892Z,77.59
2022-12-25T04:54:58.029Z,77.47
2022-12-25T04:57:30.774Z,77.81
2022-12-25T05:00:00.941Z,77.57
2022-12-25T05:02:31.252Z,77.75
2022-12-25T05:05:01.559Z,77.48
2022-12-25T05:07:31.775Z,77.71
2022-12-25T05:10:02.074Z,78.07
2022-12-25T05:12:34.819Z,78.17
2022-12-25T05:15:04.999Z,78.24
2022-12-25T05:17:35.235Z,78.22
2022-12-25T05:20:05.499Z,77.90
2022-12-25T05:22:35.631Z,77.90
2022-12-25T05:25:05.788Z,78.14
2022-12-25T05:27:38.721Z,78.05
2022-12-25T05:30:10.627Z,78.04
2022-12-25T05:32:40.760Z,78.25
2022-12-25T05:35:11.828Z,78.13
2022-12-25T05:37:42.220Z,77.93
2022-12-25T05:40:13.973Z,78.37
2022-12-25T05:42:46.802Z,78.31
2022-12-25T05:45:17.090Z,77.99
2022-12-25T05:47:47.219Z,78.31
2022-12-25T05:50:17.496Z,78.41
2022-12-25T05:52:47.692Z,78.84
2022-12-25T05:55:17.882Z,78.88
2022-12-25T05:57:51.083Z,78.86
2022-12-25T06:00:22.785Z,78.85
2022-12-25T06:02:53.146Z,78.98
2022-12-25T06:05:23.528Z,79.07
2022-12-25T06:07:53.750Z,79.02
2022-12-25T06:10:23.862Z,79.21
2022-12-25T06:12:57.608Z,79.26
2022-12-25T06:15:27.812Z,79.75
2022-12-25T06:17:58.131Z,79.39
2022-12-25T06:20:28.286Z,78.85
2022-12-25T06:22:58.511Z,78.61
2022-12-25T06:25:28.775Z,78.13
2022-12-25T06:28:01.787Z,78.24
2022-12-25T06:30:32.086Z,78.32
2022-12-25T06:33:02.461Z,78.71
2022-12-25T06:35:33.065Z,78.65
2022-12-25T06:38:03.268Z,78.34
2022-12-25T06:40:33.519Z,78.39
2022-12-25T06:43:06.296Z,78.71
2022-12-25T06:45:38.478Z,78.51
2022-12-25T06:48:08.982Z,78.49
2022-12-25T06:50:39.323Z,79.60
2022-12-25T06:53:09.807Z,79.95
2022-12-25T06:55:39.976Z,79.99
2022-12-25T06:58:13.129Z,85.49
2022-12-25T07:00:43.338Z,88.22
2022-12-25T07:03:19.278Z,84.25
2022-12-25T07:05:49.901Z,82.20
2022-12-25T07:08:20.099Z,80.90
2022-12-25T07:10:50.314Z,79.92
2022-12-25T07:13:23.144Z,78.80
2022-12-25T07:15:58.814Z,77.30
2022-12-25T07:18:30.115Z,75.67
2022-12-25T07:21:01.718Z,72.83
2022-12-25T07:23:31.947Z,71.36
2022-12-25T07:26:03.724Z,67.66
2022-12-25T07:28:37.259Z,66.60
2022-12-25T07:31:10.125Z,63.97
2022-12-25T07:33:43.757Z,62.88
2022-12-25T07:36:14.548Z,61.91
2022-12-25T07:38:45.122Z,60.38
2022-12-25T07:41:15.691Z,60.05
2022-12-25T07:43:51.866Z,59.81
2022-12-25T07:46:23.305Z,60.18
2022-12-25T07:48:53.627Z,59.72
2022-12-25T07:51:23.978Z,59.60
2022-12-25T07:53:54.185Z,59.08
2022-12-25T07:56:24.369Z,59.98
2022-12-25T07:58:57.224Z,60.19
2022-12-25T08:01:32.857Z,62.39
2022-12-25T08:04:04.636Z,63.49
2022-12-25T08:06:36.601Z,64.36
2022-12-25T08:09:09.127Z,65.32
2022-12-25T08:11:42.805Z,66.66
2022-12-25T08:14:16.014Z,67.69
2022-12-25T08:16:47.200Z,68.34
2022-12-25T08:19:22.567Z,69.20
2022-12-25T08:21:52.695Z,69.08
2022-12-25T08:24:22.944Z,69.54
2022-12-25T08:26:53.105Z,70.34
2022-12-25T08:29:25.907Z,70.73
2022-12-25T08:31:56.662Z,69.89
2022-12-25T08:34:27.170Z,69.03
2022-12-25T08:36:57.391Z,69.78
2022-12-25T08:39:28.764Z,70.08
2022-12-25T08:42:01.664Z,69.84
2022-12-25T08:44:37.067Z,69.44
2022-12-25T08:47:07.843Z,69.41
2022-12-25T08:49:40.895Z,68.36
2022-12-25T08:52:11.391Z,68.17
2022-12-25T08:54:41.619Z,67.89
2022-12-25T08:57:11.914Z,67.38
2022-12-25T08:59:44.851Z,67.52
2022-12-25T09:02:16.093Z,68.05
2022-12-25T09:04:48.324Z,67.38
2022-12-25T09:07:18.540Z,67.37
2022-12-25T09:09:49.053Z,66.42
2022-12-25T09:12:19.319Z,66.17
2022-12-25T09:14:55.251Z,64.72
2022-12-25T09:17:25.476Z,65.61
2022-12-25T09:19:56.006Z,65.52
2022-12-25T09:22:26.168Z,65.54
2022-12-25T09:24:56.706Z,66.75
2022-12-25T09:27:26.947Z,66.45
2022-12-25T09:29:59.889Z,66.17
2022-12-25T09:32:30.116Z,66.30
2022-12-25T09:35:00.287Z,66.43
2022-12-25T09:37:31.306Z,65.60
2022-12-25T09:40:01.640Z,65.29
2022-12-25T09:42:34.755Z,64.45
2022-12-25T09:45:13.380Z,64.56
2022-12-25T09:47:46.196Z,64.01
2022-12-25T09:50:22.366Z,63.32
2022-12-25T09:52:58.000Z,62.83
2022-12-25T09:55:30.127Z,62.78
2022-12-25T09:58:03.413Z,62.63
2022-12-25T10:00:41.400Z,62.63
2022-12-25T10:03:21.919Z,62.46
2022-12-25T10:06:20.112Z,62.30
2022-12-25T10:09:06.552Z,61.84
2022-12-25T10:11:50.399Z,61.49
2022-12-25T10:14:31.769Z,61.23
2022-12-25T10:17:23.165Z,61.10
2022-12-25T10:20:02.024Z,61.15
2022-12-25T10:22:37.658Z,61.14
2022-12-25T10:25:09.774Z,61.33
2022-12-25T10:27:42.948Z,61.01
2022-12-25T10:30:18.613Z,61.15
2022-12-25T10:32:52.547Z,61.15
2022-12-25T10:35:23.458Z,61.12
2022-12-25T10:38:00.454Z,61.14
2022-12-25T10:40:41.587Z,60.45
2022-12-25T10:43:15.841Z,60.65
2022-12-25T10:45:47.447Z,60.79
2022-12-25T10:48:24.627Z,60.02
2022-12-25T10:50:55.449Z,59.50
2022-12-25T10:53:32.347Z,59.77
2022-12-25T10:56:07.102Z,59.49
2022-12-25T10:58:37.447Z,59.00
2022-12-25T11:01:10.016Z,59.38
2022-12-25T11:03:44.495Z,59.48
2022-12-25T11:06:25.861Z,58.78
2022-12-25T11:08:58.667Z,58.56
2022-12-25T11:11:30.719Z,58.36
2022-12-25T11:14:03.203Z,57.96
2022-12-25T11:16:35.654Z,58.07
2022-12-25T11:19:27.644Z,57.13
2022-12-25T11:21:59.934Z,57.70
2022-12-25T11:24:32.801Z,58.27
2022-12-25T11:27:07.374Z,57.83
2022-12-25T11:29:43.922Z,56.61
2022-12-25T11:32:19.950Z,55.83
2022-12-25T11:34:53.854Z,55.80
2022-12-25T11:37:31.063Z,55.12
2022-12-25T11:40:01.888Z,55.04
2022-12-25T11:42:36.107Z,54.75
2022-12-25T11:45:11.784Z,58.48
2022-12-25T11:47:47.093Z,59.68
2022-12-25T11:50:27.406Z,59.69
2022-12-25T11:52:58.356Z,60.99
2022-12-25T11:55:36.325Z,60.67
2022-12-25T11:58:15.483Z,60.80
2022-12-25T12:00:47.193Z,61.04
2022-12-25T12:03:24.377Z,61.62
2022-12-25T12:06:00.331Z,61.75
2022-12-25T12:08:33.121Z,62.21
2022-12-25T12:11:20.700Z,62.01
2022-12-25T12:14:05.800Z,62.98
2022-12-25T12:16:37.718Z,63.32
2022-12-25T12:19:16.173Z,63.12
2022-12-25T12:21:52.504Z,63.93
2022-12-25T12:24:25.182Z,64.61
2022-12-25T12:27:05.329Z,64.25
2022-12-25T12:29:41.765Z,65.00
2022-12-25T12:32:38.197Z,65.29
2022-12-25T12:35:14.776Z,65.30
2022-12-25T12:37:49.227Z,65.46
2022-12-25T12:40:34.294Z,65.61
2022-12-25T12:43:05.185Z,65.64
2022-12-25T12:45:37.776Z,65.92
2022-12-25T12:48:18.831Z,65.45
2022-12-25T12:50:49.732Z,65.02
2022-12-25T12:53:34.528Z,65.88
2022-12-25T12:56:19.893Z,65.98
2022-12-25T12:58:52.794Z,66.13
2022-12-25T13:01:41.813Z,66.22
2022-12-25T13:04:31.283Z,66.71
2022-12-25T13:07:13.262Z,66.69
2022-12-25T13:09:58.384Z,67.25
2022-12-25T13:12:28.886Z,67.20
2022-12-25T13:14:59.699Z,67.49
2022-12-25T13:17:31.781Z,67.39
2022-12-25T13:20:03.926Z,67.51
2022-12-25T13:22:36.404Z,67.43
2022-12-25T13:25:22.763Z,67.71
2022-12-25T13:27:59.782Z,68.38
2022-12-25T13:30:30.444Z,68.07
2022-12-25T13:33:00.759Z,67.68
2022-12-25T13:35:30.969Z,67.94
2022-12-25T13:38:01.464Z,67.77
2022-12-25T13:40:34.264Z,68.88
2022-12-25T13:43:02.627Z,68.78
2022-12-25T13:45:35.130Z,68.59
2022-12-25T13:48:17.895Z,68.79
2022-12-25T13:50:48.892Z,68.69
2022-12-25T13:53:20.383Z,68.59
2022-12-25T13:55:54.932Z,69.12
2022-12-25T13:58:29.363Z,69.28
2022-12-25T14:01:03.918Z,69.35
2022-12-25T14:03:38.622Z,69.85
2022-12-25T14:06:18.901Z,70.02
2022-12-25T14:08:52.960Z,70.44
2022-12-25T14:11:27.670Z,70.42
2022-12-25T14:14:02.699Z,70.48
2022-12-25T14:16:33.460Z,70.74
2022-12-25T14:19:08.040Z,71.03
2022-12-25T14:21:49.350Z,71.11
2022-12-25T14:24:20.413Z,71.61
2022-12-25T14:27:00.969Z,71.82
2022-12-25T14:29:38.514Z,71.72
2022-12-25T14:32:10.522Z,72.37
2022-12-25T14:34:41.087Z,72.45
2022-12-25T14:37:19.893Z,72.76
2022-12-25T14:39:58.800Z,72.64
2022-12-25T14:42:35.144Z,73.10
2022-12-25T14:45:07.899Z,73.27
2022-12-25T14:47:53.905Z,73.73
2022-12-25T14:50:29.791Z,73.94
2022-12-25T14:53:01.543Z,73.77
2022-12-25T14:55:33.349Z,74.23
2022-12-25T14:58:08.781Z,74.36
2022-12-25T15:00:40.827Z,75.08
2022-12-25T15:03:23.777Z,74.91
2022-12-25T15:06:02.844Z,74.61
2022-12-25T15:08:34.653Z,74.92
2022-12-25T15:11:05.420Z,75.39
2022-12-25T15:13:38.457Z,75.26
2022-12-25T15:16:15.228Z,75.41
2022-12-25T15:18:47.803Z,75.41
2022-12-25T15:21:20.557Z,75.91
2022-12-25T15:23:50.802Z,75.72
2022-12-25T15:26:21.176Z,76.03
2022-12-25T15:28:53.990Z,76.43
2022-12-25T15:31:26.735Z,76.23
2022-12-25T15:34:00.640Z,76.69
2022-12-25T15:36:31.200Z,76.81
2022-12-25T15:39:01.757Z,76.95
2022-12-25T15:41:47.021Z,77.04
2022-12-25T15:44:20.139Z,77.02
2022-12-25T15:46:50.912Z,76.82
2022-12-25T15:49:22.015Z,76.95
2022-12-25T15:51:52.224Z,77.04
2022-12-25T15:54:22.659Z,77.14
2022-12-25T15:56:55.142Z,77.11
2022-12-25T15:59:27.963Z,77.31
2022-12-25T16:02:00.449Z,77.60
2022-12-25T16:04:34.270Z,77.41
2022-12-25T16:07:04.651Z,77.46
2022-12-25T16:09:34.819Z,77.59
2022-12-25T16:12:05.803Z,78.36
2022-12-25T16:14:38.898Z,77.60
2022-12-25T16:17:09.047Z,77.65
2022-12-25T16:19:39.354Z,77.50
2022-12-25T16:22:14.709Z,77.56
2022-12-25T16:24:47.747Z,77.42
2022-12-25T16:27:17.982Z,77.65
2022-12-25T16:29:50.871Z,78.09
2022-12-25T16:32:21.135Z,77.81
2022-12-25T16:34:52.066Z,77.73
2022-12-25T16:37:24.358Z,77.85
2022-12-25T16:39:54.666Z,77.63
2022-12-25T16:42:28.155Z,77.94
2022-12-25T16:45:04.010Z,77.98
2022-12-25T16:47:35.536Z,77.99
2022-12-25T16:50:08.677Z,77.89
2022-12-25T16:52:40.925Z,77.97
2022-12-25T16:55:13.794Z,77.96
2022-12-25T16:57:46.487Z,77.69
2022-12-25T17:00:25.479Z,78.14
2022-12-25T17:03:04.934Z,78.30
2022-12-25T17:05:38.792Z,78.39
2022-12-25T17:08:11.652Z,78.46
2022-12-25T17:10:43.128Z,78.67
2022-12-25T17:13:15.666Z,78.53
2022-12-25T17:15:55.080Z,78.99
2022-12-25T17:18:26.519Z,78.75
2022-12-25T17:21:00.109Z,78.58
2022-12-25T17:23:38.083Z,78.89
2022-12-25T17:26:10.136Z,78.60
2022-12-25T17:28:40.356Z,78.68
2022-12-25T17:31:19.558Z,78.41
2022-12-25T17:33:54.334Z,78.85
2022-12-25T17:36:28.023Z,78.74
2022-12-25T17:39:01.599Z,78.68
2022-12-25T17:41:36.674Z,78.91
2022-12-25T17:44:08.331Z,78.96
2022-12-25T17:46:48.043Z,78.63
2022-12-25T17:49:20.424Z,78.51
2022-12-25T17:51:56.039Z,78.26
2022-12-25T17:54:36.445Z,78.68
2022-12-25T17:57:09.424Z,78.45
2022-12-25T17:59:42.127Z,78.17
2022-12-25T18:02:19.095Z,78.25
2022-12-25T18:04:51.161Z,78.24
2022-12-25T18:07:40.325Z,78.55
2022-12-25T18:10:11.803Z,78.67
2022-12-25T18:12:58.287Z,78.53
2022-12-25T18:15:29.656Z,78.21
2022-12-25T18:18:08.390Z,78.66
2022-12-25T18:20:42.054Z,78.10
2022-12-25T18:23:16.370Z,78.55
2022-12-25T18:25:49.289Z,78.61
2022-12-25T18:28:25.083Z,78.41
2022-12-25T18:30:58.215Z,78.24
2022-12-25T18:33:33.584Z,77.79
2022-12-25T18:36:10.663Z,77.99
2022-12-25T18:38:41.164Z,78.06
2022-12-25T18:41:13.034Z,78.39
2022-12-25T18:43:53.254Z,78.15
2022-12-25T18:46:26.700Z,78.09
2022-12-25T18:49:01.458Z,78.08
2022-12-25T18:51:36.872Z,78.04
2022-12-25T18:54:07.604Z,78.11
2022-12-25T18:56:37.769Z,78.23
2022-12-25T18:59:10.663Z,78.26
2022-12-25T19:01:41.338Z,78.01
2022-12-25T19:04:17.558Z,77.78
2022-12-25T19:06:52.383Z,77.73
2022-12-25T19:09:22.614Z,78.08
2022-12-25T19:11:53.869Z,78.18
2022-12-25T19:14:24.651Z,77.71
2022-12-25T19:16:55.199Z,77.62
2022-12-25T19:19:31.023Z,78.02
2022-12-25T19:22:01.573Z,77.75
2022-12-25T19:24:33.037Z,77.85
2022-12-25T19:27:03.266Z,77.81
2022-12-25T19:29:34.544Z,77.60
2022-12-25T19:32:09.876Z,77.24
2022-12-25T19:34:47.525Z,77.22
2022-12-25T19:37:17.688Z,77.24
2022-12-25T19:39:48.710Z,77.30
2022-12-25T19:42:19.609Z,77.54
2022-12-25T19:44:49.888Z,77.54
2022-12-25T19:47:23.299Z,77.48
2022-12-25T19:50:02.618Z,77.34
2022-12-25T19:52:42.536Z,77.10
2022-12-25T19:55:13.382Z,77.12
2022-12-25T19:57:43.782Z,77.34
2022-12-25T20:00:14.940Z,77.24
2022-12-25T20:02:45.249Z,77.06
2022-12-25T20:05:18.432Z,77.19
2022-12-25T20:07:49.679Z,77.41
2022-12-25T20:10:20.220Z,77.49
2022-12-25T20:12:56.087Z,77.38
2022-12-25T20:15:26.390Z,77.25
2022-12-25T20:17:57.296Z,76.98
2022-12-25T20:20:30.201Z,77.02
2022-12-25T20:23:00.668Z,77.19
2022-12-25T20:25:30.998Z,76.94
2022-12-25T20:28:01.421Z,77.20
2022-12-25T20:30:33.847Z,76.87
2022-12-25T20:33:04.114Z,77.20
2022-12-25T20:35:36.899Z,76.87
2022-12-25T20:38:07.318Z,77.24
2022-12-25T20:41:00.027Z,76.82
2022-12-25T20:43:28.019Z,76.84
2022-12-25T20:45:58.338Z,76.81
2022-12-25T20:48:28.953Z,76.72
2022-12-25T20:51:12.979Z,76.28
2022-12-25T20:53:44.091Z,76.32
2022-12-25T20:56:18.308Z,76.49
2022-12-25T20:58:50.663Z,76.69
2022-12-25T21:01:21.039Z,76.71
2022-12-25T21:03:51.540Z,76.91
2022-12-25T21:06:24.528Z,76.66
2022-12-25T21:08:55.187Z,76.80
2022-12-25T21:11:25.788Z,76.66
2022-12-25T21:13:56.194Z,76.54
2022-12-25T21:16:28.159Z,76.21
2022-12-25T21:18:58.752Z,76.76
2022-12-25T21:21:32.003Z,76.69
2022-12-25T21:24:02.223Z,76.52
2022-12-25T21:26:33.666Z,76.50
2022-12-25T21:29:05.212Z,76.53
2022-12-25T21:31:57.103Z,76.54
2022-12-25T21:34:24.684Z,76.34
2022-12-25T21:36:57.648Z,76.78
2022-12-25T21:39:27.872Z,76.45
2022-12-25T21:41:58.256Z,76.30
2022-12-25T21:44:28.512Z,76.46
2022-12-25T21:46:58.761Z,76.22
2022-12-25T21:49:42.697Z,76.45
2022-12-25T21:52:15.529Z,76.18
2022-12-25T21:54:46.041Z,76.43
2022-12-25T21:57:16.267Z,76.62
2022-12-25T21:59:46.457Z,76.21
2022-12-25T22:02:19.326Z,76.58
2022-12-25T22:04:49.611Z,76.66
2022-12-25T22:07:19.858Z,76.80
2022-12-25T22:09:51.545Z,76.68
2022-12-25T22:12:35.906Z,76.78
2022-12-25T22:15:06.757Z,77.00
2022-12-25T22:17:52.414Z,76.60
2022-12-25T22:20:24.864Z,76.79
2022-12-25T22:22:57.702Z,76.83
2022-12-25T22:25:28.307Z,76.73
2022-12-25T22:28:00.737Z,76.96
2022-12-25T22:30:34.705Z,77.38
2022-12-25T22:33:04.632Z,77.27
2022-12-25T22:35:34.873Z,77.71
2022-12-25T22:38:07.820Z,77.29
2022-12-25T22:40:39.672Z,77.58
2022-12-25T22:43:09.855Z,77.81
2022-12-25T22:45:39.975Z,77.96
2022-12-25T22:48:10.309Z,78.18
2022-12-25T22:50:40.912Z,78.07
2022-12-25T22:53:13.660Z,78.05
2022-12-25T22:55:48.690Z,77.65
2022-12-25T22:58:19.302Z,78.01
2022-12-25T23:00:49.452Z,78.00
2022-12-25T23:03:19.709Z,77.71
2022-12-25T23:05:56.763Z,78.09
2022-12-25T23:08:29.609Z,78.52
2022-12-25T23:11:04.534Z,78.25
2022-12-25T23:13:47.128Z,78.53
2022-12-25T23:16:18.496Z,78.34
2022-12-25T23:19:01.186Z,78.26
2022-12-25T23:21:44.587Z,78.20
2022-12-25T23:24:31.168Z,78.17
2022-12-25T23:27:01.601Z,78.27
2022-12-25T23:29:38.049Z,78.45
2022-12-25T23:32:10.463Z,78.50
2022-12-25T23:34:43.289Z,79.06
2022-12-25T23:37:14.756Z,78.89
2022-12-25T23:39:47.637Z,78.93
2022-12-25T23:42:18.039Z,78.91
2022-12-25T23:44:48.201Z,79.08
2022-12-25T23:47:18.444Z,79.38
2022-12-25T23:49:48.790Z,79.41
2022-12-25T23:52:19.199Z,80.31
2022-12-25T23:54:52.047Z,79.79
2022-12-25T23:57:22.193Z,79.72
2022-12-25T23:59:52.355Z,79.47
